Time;durP1;ratioP1;P1;durP2;ratioP2;P2;SDS_P1;SDS_P2;PMS_P1;PMS_P2;Temp;Humidity;BMP_temperature;BMP_pressure;BME280_temperature;BME280_humidity;BME280_pressure;Samples;Min_cycle;Max_cycle;Signal;HPM_P1;HPM_P2
2021/01/18 00:01:30;;;;;;;9.67;3.97;;;;;;;;;;5028258;28;20826;-59
2021/01/18 00:03:56;;;;;;;7.83;3.53;;;;;;;;;;5027768;28;20213;-59
2021/01/18 00:06:23;;;;;;;7.37;3.70;;;;;;;;;;5028874;28;20474;-59
2021/01/18 00:08:49;;;;;;;7.90;3.93;;;;;;;;;;5027692;28;20214;-61
2021/01/18 00:11:20;;;;;;;8.37;4.50;;;;;;;;;;5029082;28;20436;-59
2021/01/18 00:13:46;;;;;;;7.37;3.57;;;;;;;;;;5027844;28;20181;-60
2021/01/18 00:16:13;;;;;;;5.40;3.87;;;;;;;;;;5011642;28;20267;-59
2021/01/18 00:18:39;;;;;;;7.17;4.00;;;;;;;;;;5027231;28;20516;-59
2021/01/18 00:21:05;;;;;;;9.20;5.67;;;;;;;;;;5007397;28;20177;-59
2021/01/18 00:23:31;;;;;;;8.50;4.13;;;;;;;;;;5028275;28;20217;-59
2021/01/18 00:25:57;;;;;;;9.83;4.60;;;;;;;;;;5026313;28;20488;-58
2021/01/18 00:28:23;;;;;;;8.63;4.43;;;;;;;;;;5026027;28;20219;-60
2021/01/18 00:30:49;;;;;;;8.83;4.63;;;;;;;;;;5028679;28;20460;-59
2021/01/18 00:33:15;;;;;;;11.43;4.53;;;;;;;;;;5027644;28;20178;-59
2021/01/18 00:35:41;;;;;;;9.10;4.60;;;;;;;;;;5008854;28;20185;-59
2021/01/18 00:38:07;;;;;;;11.57;4.80;;;;;;;;;;5007786;28;20239;-59
2021/01/18 00:40:33;;;;;;;7.20;4.53;;;;;;;;;;5023422;28;20182;-61
2021/01/18 00:42:59;;;;;;;6.87;4.50;;;;;;;;;;5028708;28;20244;-59
2021/01/18 00:45:26;;;;;;;9.30;4.93;;;;;;;;;;5028055;28;20756;-59
2021/01/18 00:47:53;;;;;;;8.67;4.70;;;;;;;;;;5027903;28;20170;-59
2021/01/18 00:50:21;;;;;;;12.77;6.13;;;;;;;;;;5027903;28;20213;-59
2021/01/18 00:52:48;;;;;;;9.03;4.57;;;;;;;;;;5005187;28;20182;-59
2021/01/18 00:55:16;;;;;;;6.10;4.50;;;;;;;;;;5022434;28;20234;-60
2021/01/18 00:57:43;;;;;;;7.83;4.80;;;;;;;;;;5004085;28;20265;-59
2021/01/18 01:00:16;;;;;;;8.30;3.97;;;;;;;;;;5028288;28;20497;-60
2021/01/18 01:02:42;;;;;;;10.30;4.97;;;;;;;;;;5010085;28;20192;-59
2021/01/18 01:05:09;;;;;;;11.23;4.70;;;;;;;;;;5026684;28;20288;-59
2021/01/18 01:07:42;;;;;;;8.50;4.90;;;;;;;;;;5027153;28;20184;-59
2021/01/18 01:10:09;;;;;;;10.47;5.10;;;;;;;;;;5004830;28;20261;-59
2021/01/18 01:12:35;;;;;;;7.10;4.40;;;;;;;;;;5024410;28;20511;-59
2021/01/18 01:15:02;;;;;;;8.83;4.57;;;;;;;;;;5024815;28;20531;-59
2021/01/18 01:17:28;;;;;;;9.30;5.17;;;;;;;;;;5028001;28;20208;-59
2021/01/18 01:19:54;;;;;;;8.33;5.43;;;;;;;;;;5027283;28;20738;-59
2021/01/18 01:22:20;;;;;;;11.47;4.30;;;;;;;;;;5026921;28;20187;-60
2021/01/18 01:24:46;;;;;;;9.67;4.80;;;;;;;;;;5026485;28;20198;-60
2021/01/18 01:27:12;;;;;;;10.23;5.13;;;;;;;;;;5027184;28;20236;-59
2021/01/18 01:29:38;;;;;;;7.77;4.67;;;;;;;;;;5028412;28;20540;-59
2021/01/18 01:32:04;;;;;;;9.03;4.27;;;;;;;;;;5025861;28;20535;-59
2021/01/18 01:34:30;;;;;;;8.83;4.50;;;;;;;;;;5012393;28;20225;-60
2021/01/18 01:36:56;;;;;;;10.60;4.40;;;;;;;;;;5027570;28;20186;-59
2021/01/18 01:39:22;;;;;;;7.40;5.10;;;;;;;;;;5027514;28;21794;-59
2021/01/18 01:41:48;;;;;;;9.13;5.67;;;;;;;;;;5012553;28;20277;-60
2021/01/18 01:44:14;;;;;;;8.10;4.97;;;;;;;;;;5031384;28;20193;-60
2021/01/18 01:46:40;;;;;;;7.67;5.63;;;;;;;;;;5031516;28;20205;-60
2021/01/18 01:49:06;;;;;;;6.23;4.30;;;;;;;;;;5029498;28;20196;-59
2021/01/18 01:51:33;;;;;;;10.27;4.57;;;;;;;;;;5031647;28;20643;-59
2021/01/18 01:54:00;;;;;;;8.63;4.97;;;;;;;;;;5031318;28;20178;-59
2021/01/18 01:56:26;;;;;;;9.07;4.40;;;;;;;;;;5031310;28;20840;-59
2021/01/18 01:58:53;;;;;;;8.87;4.70;;;;;;;;;;5012066;28;20435;-59
2021/01/18 02:01:20;;;;;;;8.50;4.07;;;;;;;;;;5027414;28;20515;-59
2021/01/18 02:03:47;;;;;;;8.57;4.80;;;;;;;;;;5009458;28;20293;-59
2021/01/18 02:06:13;;;;;;;6.77;4.17;;;;;;;;;;5030384;28;20248;-59
2021/01/18 02:08:39;;;;;;;7.63;4.80;;;;;;;;;;5030877;28;20476;-59
2021/01/18 02:11:06;;;;;;;4.00;3.57;;;;;;;;;;5031566;28;20466;-59
2021/01/18 02:13:38;;;;;;;9.00;4.60;;;;;;;;;;5012865;28;20950;-59
2021/01/18 02:16:22;;;;;;;4.60;4.13;;;;;;;;;;5012908;28;20584;-59
2021/01/18 02:18:48;;;;;;;5.83;4.43;;;;;;;;;;5022813;28;20432;-59
2021/01/18 02:21:38;;;;;;;7.87;4.30;;;;;;;;;;5012110;28;20763;-60
2021/01/18 02:24:20;;;;;;;9.87;5.03;;;;;;;;;;5009480;28;20189;-59
2021/01/18 02:26:54;;;;;;;7.27;4.67;;;;;;;;;;5030661;28;20825;-59
2021/01/18 02:29:39;;;;;;;8.03;4.30;;;;;;;;;;5030974;28;20193;-59
2021/01/18 02:32:08;;;;;;;9.77;5.10;;;;;;;;;;5025127;28;20182;-59
2021/01/18 02:34:40;;;;;;;5.43;3.73;;;;;;;;;;5030655;28;20197;-59
2021/01/18 02:37:12;;;;;;;6.57;4.23;;;;;;;;;;5030868;28;20568;-59
2021/01/18 02:39:57;;;;;;;7.03;4.07;;;;;;;;;;5029293;28;20201;-59
2021/01/18 02:42:31;;;;;;;7.60;4.20;;;;;;;;;;5025246;28;20182;-59
2021/01/18 02:44:58;;;;;;;7.07;4.23;;;;;;;;;;5011411;28;20218;-59
2021/01/18 02:47:26;;;;;;;8.67;4.43;;;;;;;;;;5030957;28;20586;-58
2021/01/18 02:49:52;;;;;;;9.27;4.27;;;;;;;;;;5027570;28;20225;-59
2021/01/18 02:52:18;;;;;;;7.43;4.20;;;;;;;;;;5011640;28;20174;-59
2021/01/18 02:54:44;;;;;;;7.60;4.27;;;;;;;;;;5010926;28;20612;-59
2021/01/18 02:57:15;;;;;;;6.83;4.07;;;;;;;;;;5027862;28;20452;-59
2021/01/18 02:59:44;;;;;;;6.33;4.73;;;;;;;;;;5029796;28;20197;-61
2021/01/18 03:02:16;;;;;;;5.23;4.30;;;;;;;;;;5029435;28;20429;-59
2021/01/18 03:04:51;;;;;;;9.97;5.37;;;;;;;;;;5007617;28;20259;-59
2021/01/18 03:07:53;;;;;;;13.57;5.67;;;;;;;;;;5019441;28;20847;-59
2021/01/18 03:10:32;;;;;;;6.70;5.10;;;;;;;;;;4949092;28;20824;-59
2021/01/18 03:13:01;;;;;;;7.97;6.00;;;;;;;;;;5005646;28;20456;-59
2021/01/18 03:15:28;;;;;;;7.07;5.27;;;;;;;;;;4993110;28;20728;-59
2021/01/18 03:17:58;;;;;;;10.07;6.37;;;;;;;;;;5024623;28;20424;-59
2021/01/18 03:20:25;;;;;;;8.80;5.97;;;;;;;;;;5028813;28;20205;-59
2021/01/18 03:22:51;;;;;;;8.90;6.27;;;;;;;;;;5029905;28;20257;-58
2021/01/18 03:25:17;;;;;;;8.87;6.00;;;;;;;;;;5007839;28;20197;-59
2021/01/18 03:27:51;;;;;;;12.07;5.57;;;;;;;;;;5028327;28;21021;-59
2021/01/18 03:30:20;;;;;;;10.80;6.10;;;;;;;;;;5026423;28;20182;-58
2021/01/18 03:32:54;;;;;;;9.80;6.10;;;;;;;;;;5028865;28;20524;-59
2021/01/18 03:35:21;;;;;;;11.37;6.50;;;;;;;;;;5027947;28;20641;-58
2021/01/18 03:37:57;;;;;;;8.93;5.90;;;;;;;;;;5011264;28;20620;-59
2021/01/18 03:40:24;;;;;;;11.53;6.43;;;;;;;;;;5010019;28;20190;-58
2021/01/18 03:42:53;;;;;;;10.87;7.00;;;;;;;;;;5029147;28;20463;-59
2021/01/18 03:45:20;;;;;;;12.03;7.03;;;;;;;;;;5029325;28;20194;-59
2021/01/18 03:47:46;;;;;;;11.20;6.50;;;;;;;;;;5029533;28;20178;-59
2021/01/18 03:50:12;;;;;;;11.97;7.10;;;;;;;;;;5027786;28;20220;-59
2021/01/18 03:52:38;;;;;;;12.20;8.07;;;;;;;;;;5027817;28;20182;-59
2021/01/18 03:55:04;;;;;;;12.37;5.80;;;;;;;;;;5029244;28;20315;-59
2021/01/18 03:57:30;;;;;;;10.93;6.43;;;;;;;;;;5011035;28;20181;-58
2021/01/18 03:59:56;;;;;;;9.53;6.70;;;;;;;;;;5010139;28;20200;-61
2021/01/18 04:02:22;;;;;;;10.47;6.77;;;;;;;;;;5029352;28;20628;-59
2021/01/18 04:04:48;;;;;;;9.67;6.43;;;;;;;;;;5027960;28;20209;-59
2021/01/18 04:07:14;;;;;;;12.33;7.03;;;;;;;;;;5007632;28;20188;-59
2021/01/18 04:09:40;;;;;;;10.00;6.73;;;;;;;;;;5028997;28;20657;-58
2021/01/18 04:12:07;;;;;;;10.87;7.30;;;;;;;;;;5028438;28;20287;-60
2021/01/18 04:14:33;;;;;;;8.33;6.40;;;;;;;;;;5028745;28;20185;-59
2021/01/18 04:16:59;;;;;;;9.00;6.73;;;;;;;;;;5028501;28;20212;-58
2021/01/18 04:19:25;;;;;;;8.30;6.20;;;;;;;;;;5010588;28;20217;-59
2021/01/18 04:21:51;;;;;;;11.30;6.57;;;;;;;;;;5026681;28;20185;-59
2021/01/18 04:24:17;;;;;;;8.60;6.67;;;;;;;;;;5027107;28;20240;-59
2021/01/18 04:26:43;;;;;;;9.53;6.37;;;;;;;;;;5028751;28;20201;-59
2021/01/18 04:29:09;;;;;;;10.60;7.33;;;;;;;;;;5019850;28;20651;-59
2021/01/18 04:31:39;;;;;;;9.90;7.13;;;;;;;;;;5011053;28;20216;-59
2021/01/18 04:34:05;;;;;;;10.87;6.40;;;;;;;;;;5020773;28;20433;-59
2021/01/18 04:36:36;;;;;;;9.37;6.60;;;;;;;;;;5028571;28;20200;-58
2021/01/18 04:39:03;;;;;;;19.97;7.77;;;;;;;;;;5027343;28;20233;-60
2021/01/18 04:41:29;;;;;;;11.33;7.17;;;;;;;;;;5028123;28;20186;-59
2021/01/18 04:43:55;;;;;;;12.03;6.63;;;;;;;;;;5028367;28;20178;-60
2021/01/18 04:46:23;;;;;;;11.17;6.07;;;;;;;;;;5002091;28;20210;-59
2021/01/18 04:48:49;;;;;;;7.57;5.80;;;;;;;;;;5021625;28;20248;-59
2021/01/18 04:51:16;;;;;;;9.50;6.10;;;;;;;;;;5009461;28;20189;-59
2021/01/18 04:53:50;;;;;;;42.47;9.23;;;;;;;;;;5028309;28;20174;-58
2021/01/18 04:56:28;;;;;;;31.40;8.60;;;;;;;;;;5027996;28;20177;-59
2021/01/18 04:59:00;;;;;;;7.27;5.90;;;;;;;;;;5005696;28;20196;-59
2021/01/18 05:01:30;;;;;;;7.87;5.77;;;;;;;;;;5027657;28;20186;-59
2021/01/18 05:04:04;;;;;;;11.50;7.17;;;;;;;;;;5027380;28;20460;-59
2021/01/18 05:06:36;;;;;;;9.30;6.17;;;;;;;;;;5007787;28;20531;-59
2021/01/18 05:09:05;;;;;;;11.70;6.70;;;;;;;;;;5027179;28;20249;-58
2021/01/18 05:11:33;;;;;;;10.53;6.83;;;;;;;;;;5027876;28;20255;-58
2021/01/18 05:14:03;;;;;;;7.63;5.97;;;;;;;;;;5026430;28;20256;-59
2021/01/18 05:16:33;;;;;;;7.97;6.30;;;;;;;;;;5024199;28;20440;-59
2021/01/18 05:19:02;;;;;;;8.63;6.67;;;;;;;;;;5011547;28;20183;-59
2021/01/18 05:21:28;;;;;;;8.07;6.37;;;;;;;;;;5002481;28;20190;-59
2021/01/18 05:23:54;;;;;;;7.67;5.90;;;;;;;;;;5010724;28;20197;-58
2021/01/18 05:26:21;;;;;;;10.80;6.50;;;;;;;;;;5028233;28;20602;-58
2021/01/18 05:28:47;;;;;;;8.93;5.57;;;;;;;;;;5031215;28;20233;-59
2021/01/18 05:31:29;;;;;;;8.10;5.73;;;;;;;;;;5030882;28;20190;-58
2021/01/18 05:33:55;;;;;;;7.30;6.10;;;;;;;;;;5006287;28;20175;-59
2021/01/18 05:36:35;;;;;;;8.57;6.17;;;;;;;;;;5013141;28;20200;-59
2021/01/18 05:39:12;;;;;;;8.87;6.73;;;;;;;;;;5029185;28;20459;-58
2021/01/18 05:41:38;;;;;;;10.23;7.27;;;;;;;;;;5028230;28;20189;-58
2021/01/18 05:44:05;;;;;;;9.37;7.07;;;;;;;;;;5028208;28;20451;-58
2021/01/18 05:46:33;;;;;;;12.77;7.47;;;;;;;;;;5031498;28;20653;-58
2021/01/18 05:49:05;;;;;;;11.47;6.43;;;;;;;;;;5011965;28;20178;-59
2021/01/18 05:51:32;;;;;;;6.97;5.73;;;;;;;;;;5030442;28;20261;-57
2021/01/18 05:54:00;;;;;;;12.23;6.93;;;;;;;;;;5029952;28;20185;-59
2021/01/18 05:56:26;;;;;;;7.50;6.10;;;;;;;;;;5008711;28;20186;-58
2021/01/18 05:58:54;;;;;;;9.90;6.57;;;;;;;;;;5004199;28;20277;-58
2021/01/18 06:01:38;;;;;;;9.83;5.67;;;;;;;;;;5011313;28;20213;-58
2021/01/18 06:04:09;;;;;;;9.93;6.63;;;;;;;;;;5026004;28;20623;-58
2021/01/18 06:06:36;;;;;;;10.87;7.50;;;;;;;;;;5029153;28;20473;-58
2021/01/18 06:09:02;;;;;;;10.07;5.97;;;;;;;;;;5030508;28;20233;-60
2021/01/18 06:11:28;;;;;;;11.03;7.30;;;;;;;;;;5031044;28;20182;-58
2021/01/18 06:14:01;;;;;;;8.47;6.77;;;;;;;;;;5028517;28;20174;-58
2021/01/18 06:16:31;;;;;;;8.27;6.47;;;;;;;;;;5026097;28;20192;-58
2021/01/18 06:19:23;;;;;;;11.33;6.47;;;;;;;;;;5027322;28;20196;-59
2021/01/18 06:21:49;;;;;;;7.70;5.90;;;;;;;;;;5023421;28;20437;-58
2021/01/18 06:24:16;;;;;;;8.13;5.70;;;;;;;;;;5030684;28;20182;-58
2021/01/18 06:26:42;;;;;;;9.77;6.07;;;;;;;;;;5010401;28;20437;-58
2021/01/18 06:29:08;;;;;;;10.13;6.27;;;;;;;;;;5030073;28;20184;-58
2021/01/18 06:31:44;;;;;;;11.13;6.27;;;;;;;;;;5031834;28;20603;-58
2021/01/18 06:34:10;;;;;;;10.37;5.93;;;;;;;;;;5026565;28;20193;-58
2021/01/18 06:36:37;;;;;;;8.60;5.90;;;;;;;;;;5013496;28;20447;-58
2021/01/18 06:39:05;;;;;;;10.33;6.43;;;;;;;;;;5030666;28;20256;-59
2021/01/18 06:41:33;;;;;;;6.67;5.53;;;;;;;;;;5013220;28;20420;-58
2021/01/18 06:43:59;;;;;;;6.87;5.33;;;;;;;;;;5011923;28;20465;-58
2021/01/18 06:46:28;;;;;;;10.77;6.03;;;;;;;;;;5018656;28;20555;-58
2021/01/18 06:48:55;;;;;;;10.03;5.87;;;;;;;;;;5026575;28;20554;-58
2021/01/18 06:51:22;;;;;;;8.63;5.70;;;;;;;;;;5005336;28;20788;-58
2021/01/18 06:53:49;;;;;;;6.37;5.47;;;;;;;;;;5030630;28;20170;-58
2021/01/18 06:56:21;;;;;;;6.80;5.80;;;;;;;;;;5028826;28;20187;-58
2021/01/18 06:59:02;;;;;;;10.97;6.47;;;;;;;;;;5029136;28;20440;-61
2021/01/18 07:01:31;;;;;;;9.20;6.93;;;;;;;;;;5008431;28;20233;-58
2021/01/18 07:04:03;;;;;;;9.37;7.07;;;;;;;;;;5023408;28;20205;-58
2021/01/18 07:06:31;;;;;;;10.60;6.80;;;;;;;;;;5010959;28;21124;-58
2021/01/18 07:09:01;;;;;;;10.87;7.63;;;;;;;;;;5021862;28;20483;-58
2021/01/18 07:11:28;;;;;;;11.63;6.50;;;;;;;;;;5004447;28;20883;-58
2021/01/18 07:13:55;;;;;;;9.37;6.30;;;;;;;;;;5026393;28;20929;-59
2021/01/18 07:16:21;;;;;;;9.23;6.10;;;;;;;;;;5028275;28;20540;-58
2021/01/18 07:18:57;;;;;;;8.53;6.50;;;;;;;;;;5028540;28;20184;-59
2021/01/18 07:21:26;;;;;;;11.10;7.27;;;;;;;;;;4998900;28;20422;-58
2021/01/18 07:23:54;;;;;;;8.00;6.20;;;;;;;;;;5029220;28;20429;-57
2021/01/18 07:26:38;;;;;;;9.20;6.30;;;;;;;;;;5010905;28;20490;-58
2021/01/18 07:29:08;;;;;;;10.00;6.60;;;;;;;;;;5000136;28;20215;-60
2021/01/18 07:31:34;;;;;;;11.57;7.43;;;;;;;;;;5006971;28;20762;-59
2021/01/18 07:34:00;;;;;;;11.53;7.90;;;;;;;;;;5024833;28;20488;-58
2021/01/18 07:36:30;;;;;;;8.90;7.13;;;;;;;;;;5029472;28;20177;-59
2021/01/18 07:38:56;;;;;;;11.07;7.13;;;;;;;;;;5010872;28;20178;-58
2021/01/18 07:41:30;;;;;;;13.10;7.30;;;;;;;;;;5029248;28;20177;-59
2021/01/18 07:43:56;;;;;;;9.87;7.10;;;;;;;;;;5027882;28;20495;-59
2021/01/18 07:46:26;;;;;;;9.40;7.03;;;;;;;;;;5009212;28;20213;-58
2021/01/18 07:48:52;;;;;;;9.07;7.37;;;;;;;;;;5016555;28;20217;-59
2021/01/18 07:51:21;;;;;;;12.00;7.90;;;;;;;;;;5006321;28;20417;-58
2021/01/18 07:53:48;;;;;;;13.53;7.97;;;;;;;;;;5026601;28;20606;-58
2021/01/18 07:56:26;;;;;;;9.97;7.37;;;;;;;;;;5010214;28;20178;-58
2021/01/18 07:58:58;;;;;;;10.57;7.17;;;;;;;;;;5027992;28;20262;-59
2021/01/18 08:01:28;;;;;;;13.20;7.87;;;;;;;;;;5014252;28;20524;-58
2021/01/18 08:03:54;;;;;;;9.07;7.53;;;;;;;;;;5011717;28;20204;-58
2021/01/18 08:06:20;;;;;;;16.10;8.00;;;;;;;;;;5023928;28;20317;-59
2021/01/18 08:08:46;;;;;;;16.67;8.10;;;;;;;;;;4998409;28;554985;-58
2021/01/18 08:11:12;;;;;;;11.50;7.87;;;;;;;;;;5004673;28;20166;-58
2021/01/18 08:13:42;;;;;;;13.83;7.57;;;;;;;;;;5006771;28;20463;-58
2021/01/18 08:16:16;;;;;;;10.67;7.33;;;;;;;;;;4998080;28;20183;-60
2021/01/18 08:18:51;;;;;;;9.97;7.70;;;;;;;;;;5025337;28;20429;-58
2021/01/18 08:21:35;;;;;;;14.33;8.00;;;;;;;;;;5024322;28;20626;-58
2021/01/18 08:24:01;;;;;;;11.00;6.97;;;;;;;;;;5024887;28;20425;-57
2021/01/18 08:26:27;;;;;;;11.07;7.03;;;;;;;;;;5016620;28;20229;-60
2021/01/18 08:28:54;;;;;;;14.70;7.87;;;;;;;;;;5019994;28;20186;-57
2021/01/18 08:31:20;;;;;;;15.13;8.40;;;;;;;;;;5024729;28;20261;-58
2021/01/18 08:33:46;;;;;;;13.33;7.40;;;;;;;;;;5010148;28;20186;-61
2021/01/18 08:36:12;;;;;;;11.10;6.80;;;;;;;;;;5011435;28;20210;-58
2021/01/18 08:38:38;;;;;;;11.63;7.40;;;;;;;;;;5010631;28;20243;-58
2021/01/18 08:41:09;;;;;;;13.30;7.90;;;;;;;;;;5022830;28;20186;-57
2021/01/18 08:43:45;;;;;;;15.60;7.77;;;;;;;;;;5027061;28;20185;-60
2021/01/18 08:46:47;;;;;;;10.20;7.33;;;;;;;;;;5024871;28;20197;-59
2021/01/18 08:49:32;;;;;;;13.30;7.60;;;;;;;;;;4925018;29;20474;-58
2021/01/18 08:52:01;;;;;;;9.97;7.07;;;;;;;;;;5003664;28;20213;-60
2021/01/18 08:54:37;;;;;;;11.17;7.90;;;;;;;;;;5017672;28;20178;-59
2021/01/18 08:57:18;;;;;;;18.43;8.87;;;;;;;;;;5029423;28;20542;-59
2021/01/18 08:59:45;;;;;;;11.87;7.47;;;;;;;;;;5010665;28;20181;-59
2021/01/18 09:02:18;;;;;;;13.07;8.40;;;;;;;;;;5023409;28;20417;-59
2021/01/18 09:04:44;;;;;;;11.33;7.60;;;;;;;;;;5028301;28;20598;-59
2021/01/18 09:07:11;;;;;;;14.10;8.33;;;;;;;;;;5029179;28;20707;-61
2021/01/18 09:09:39;;;;;;;11.93;8.03;;;;;;;;;;5027382;28;20517;-60
2021/01/18 09:12:08;;;;;;;11.23;7.50;;;;;;;;;;5027123;28;20504;-60
2021/01/18 09:14:34;;;;;;;12.00;8.53;;;;;;;;;;5029011;28;20256;-59
2021/01/18 09:17:07;;;;;;;13.83;7.90;;;;;;;;;;5026691;28;20275;-58
2021/01/18 09:19:33;;;;;;;14.80;8.03;;;;;;;;;;5027412;28;20265;-57
2021/01/18 09:22:00;;;;;;;12.40;8.50;;;;;;;;;;5028833;28;20265;-58
2021/01/18 09:24:27;;;;;;;12.97;8.23;;;;;;;;;;5029033;28;20186;-57
2021/01/18 09:26:53;;;;;;;16.57;8.93;;;;;;;;;;5027321;28;20186;-58
2021/01/18 09:29:22;;;;;;;10.47;8.00;;;;;;;;;;5027144;28;20232;-58
2021/01/18 09:31:49;;;;;;;12.60;8.17;;;;;;;;;;5010216;28;20190;-59
2021/01/18 09:34:15;;;;;;;14.83;8.97;;;;;;;;;;5026960;28;20180;-58
2021/01/18 09:36:41;;;;;;;12.70;8.83;;;;;;;;;;5027850;28;20196;-58
2021/01/18 09:39:16;;;;;;;13.97;8.87;;;;;;;;;;5028919;28;20188;-57
2021/01/18 09:41:43;;;;;;;15.77;8.70;;;;;;;;;;5010855;28;20174;-58
2021/01/18 09:44:09;;;;;;;13.33;8.63;;;;;;;;;;5027584;28;20239;-58
2021/01/18 09:46:35;;;;;;;14.17;8.47;;;;;;;;;;5005736;28;20198;-58
2021/01/18 09:49:01;;;;;;;12.57;8.03;;;;;;;;;;5025863;28;20521;-60
2021/01/18 09:51:27;;;;;;;14.27;9.00;;;;;;;;;;5026289;28;20181;-57
2021/01/18 09:53:57;;;;;;;13.83;8.10;;;;;;;;;;5010282;28;20230;-60
2021/01/18 09:56:23;;;;;;;14.20;8.67;;;;;;;;;;4999471;28;20182;-57
2021/01/18 09:58:55;;;;;;;14.63;8.27;;;;;;;;;;5015950;28;20198;-57
2021/01/18 10:01:24;;;;;;;12.57;8.13;;;;;;;;;;5009409;28;20190;-60
2021/01/18 10:03:54;;;;;;;21.73;8.70;;;;;;;;;;5029398;28;20196;-57
2021/01/18 10:06:27;;;;;;;13.23;8.27;;;;;;;;;;5031328;28;20198;-57
2021/01/18 10:08:55;;;;;;;14.33;9.00;;;;;;;;;;5031467;28;20201;-57
2021/01/18 10:11:33;;;;;;;12.57;8.03;;;;;;;;;;5003016;28;20235;-60
2021/01/18 10:14:02;;;;;;;16.27;9.23;;;;;;;;;;5031596;28;20157;-58
2021/01/18 10:16:28;;;;;;;12.17;9.20;;;;;;;;;;5029106;28;20186;-57
2021/01/18 10:18:54;;;;;;;14.17;8.67;;;;;;;;;;5028756;28;20186;-57
2021/01/18 10:21:32;;;;;;;11.43;8.47;;;;;;;;;;5031526;28;20185;-57
2021/01/18 10:23:58;;;;;;;14.00;8.47;;;;;;;;;;5031483;28;20653;-57
2021/01/18 10:26:27;;;;;;;14.10;8.00;;;;;;;;;;5031043;28;20244;-57
2021/01/18 10:28:55;;;;;;;15.40;9.47;;;;;;;;;;5009169;28;20236;-58
2021/01/18 10:31:22;;;;;;;13.33;8.73;;;;;;;;;;5018965;28;20239;-60
2021/01/18 10:34:07;;;;;;;14.47;8.30;;;;;;;;;;5029834;28;20837;-57
2021/01/18 10:36:33;;;;;;;12.67;8.57;;;;;;;;;;5013488;28;20553;-57
2021/01/18 10:38:59;;;;;;;15.57;8.13;;;;;;;;;;5029909;28;20935;-59
2021/01/18 10:41:26;;;;;;;11.37;7.70;;;;;;;;;;5027268;28;20449;-57
2021/01/18 10:43:52;;;;;;;14.70;8.87;;;;;;;;;;5019397;28;20428;-58
2021/01/18 10:46:18;;;;;;;14.33;8.17;;;;;;;;;;5030076;28;20668;-57
2021/01/18 10:48:54;;;;;;;15.37;8.27;;;;;;;;;;5029011;28;20189;-57
2021/01/18 10:51:24;;;;;;;12.60;8.17;;;;;;;;;;5031074;28;20190;-58
2021/01/18 10:53:55;;;;;;;16.83;8.17;;;;;;;;;;4999890;28;20537;-57
2021/01/18 10:56:21;;;;;;;12.33;7.80;;;;;;;;;;5025376;28;20685;-60
2021/01/18 10:58:55;;;;;;;13.73;7.50;;;;;;;;;;5030825;28;20174;-57
2021/01/18 11:01:21;;;;;;;13.27;7.63;;;;;;;;;;5012472;28;20194;-59
2021/01/18 11:03:47;;;;;;;12.47;7.50;;;;;;;;;;5029847;28;20304;-57
2021/01/18 11:06:19;;;;;;;10.23;7.37;;;;;;;;;;5030238;28;20209;-60
2021/01/18 11:08:50;;;;;;;11.17;7.33;;;;;;;;;;5029858;28;20672;-60
2021/01/18 11:11:17;;;;;;;12.50;7.23;;;;;;;;;;5030771;28;20684;-57
2021/01/18 11:13:44;;;;;;;14.80;8.10;;;;;;;;;;5027921;28;20185;-57
2021/01/18 11:16:11;;;;;;;16.90;7.23;;;;;;;;;;5015724;28;20186;-58
2021/01/18 11:18:37;;;;;;;13.27;7.20;;;;;;;;;;5024231;28;20240;-57
2021/01/18 11:21:03;;;;;;;12.80;7.43;;;;;;;;;;5030219;28;20178;-57
2021/01/18 11:23:29;;;;;;;10.97;6.90;;;;;;;;;;5029973;28;20182;-58
2021/01/18 11:25:55;;;;;;;13.40;7.70;;;;;;;;;;5030213;28;20606;-58
2021/01/18 11:28:21;;;;;;;11.37;7.27;;;;;;;;;;5030265;28;20224;-58
2021/01/18 11:30:48;;;;;;;9.90;6.40;;;;;;;;;;5012426;28;20208;-58
2021/01/18 11:33:14;;;;;;;12.83;6.37;;;;;;;;;;5030563;28;20185;-57
2021/01/18 11:35:41;;;;;;;13.30;7.80;;;;;;;;;;5030043;28;20251;-59
2021/01/18 11:38:07;;;;;;;13.20;6.67;;;;;;;;;;5030926;28;20181;-58
2021/01/18 11:40:33;;;;;;;10.67;6.17;;;;;;;;;;5020525;28;20273;-58
2021/01/18 11:42:59;;;;;;;8.03;5.93;;;;;;;;;;5021176;28;20319;-57
2021/01/18 11:45:26;;;;;;;12.37;6.30;;;;;;;;;;5029592;28;20300;-57
2021/01/18 11:47:52;;;;;;;11.43;6.20;;;;;;;;;;5030951;28;20205;-58
2021/01/18 11:50:18;;;;;;;12.77;5.90;;;;;;;;;;5028555;28;20512;-57
2021/01/18 11:52:45;;;;;;;11.60;6.50;;;;;;;;;;4995170;28;20217;-57
2021/01/18 11:55:15;;;;;;;13.50;5.80;;;;;;;;;;4999282;28;20394;-57
2021/01/18 11:57:41;;;;;;;12.23;5.57;;;;;;;;;;5020091;28;20272;-58
2021/01/18 12:00:08;;;;;;;13.30;5.57;;;;;;;;;;5030122;28;20675;-58
2021/01/18 12:02:34;;;;;;;9.27;5.37;;;;;;;;;;5030187;28;20189;-57
2021/01/18 12:05:00;;;;;;;12.03;5.53;;;;;;;;;;5028913;28;20205;-57
2021/01/18 12:07:26;;;;;;;7.73;4.67;;;;;;;;;;5018038;28;20667;-57
2021/01/18 12:09:52;;;;;;;10.63;5.73;;;;;;;;;;5017474;28;20221;-57
2021/01/18 12:12:18;;;;;;;6.57;4.30;;;;;;;;;;5029998;28;20178;-58
2021/01/18 12:14:46;;;;;;;15.97;5.53;;;;;;;;;;5029003;28;20170;-59
2021/01/18 12:17:12;;;;;;;11.80;5.33;;;;;;;;;;5002830;28;20174;-57
2021/01/18 12:19:38;;;;;;;10.40;5.00;;;;;;;;;;5010347;28;20197;-58
2021/01/18 12:22:04;;;;;;;8.80;5.03;;;;;;;;;;5025075;28;20197;-58
2021/01/18 12:24:30;;;;;;;11.90;4.67;;;;;;;;;;5005123;28;20652;-57
2021/01/18 12:26:56;;;;;;;8.87;4.40;;;;;;;;;;5016205;28;20578;-57
2021/01/18 12:29:22;;;;;;;8.53;5.13;;;;;;;;;;5008791;28;20190;-57
2021/01/18 12:31:48;;;;;;;9.07;4.60;;;;;;;;;;5018228;28;20485;-58
2021/01/18 12:34:15;;;;;;;11.23;4.57;;;;;;;;;;5010980;28;20224;-58
2021/01/18 12:36:41;;;;;;;8.33;4.23;;;;;;;;;;5028968;28;20182;-58
2021/01/18 12:39:08;;;;;;;8.37;4.53;;;;;;;;;;5028823;28;20257;-57
2021/01/18 12:41:36;;;;;;;10.73;4.73;;;;;;;;;;4995164;28;20338;-58
2021/01/18 12:44:03;;;;;;;7.00;4.20;;;;;;;;;;5003240;28;20543;-57
2021/01/18 12:46:29;;;;;;;7.50;4.13;;;;;;;;;;5012149;28;20202;-57
2021/01/18 12:48:55;;;;;;;9.90;4.53;;;;;;;;;;5028436;28;20185;-57
2021/01/18 12:51:21;;;;;;;7.43;4.50;;;;;;;;;;5028202;28;20189;-58
2021/01/18 12:53:47;;;;;;;8.47;4.50;;;;;;;;;;5029062;28;20236;-57
2021/01/18 12:56:19;;;;;;;7.20;4.73;;;;;;;;;;5028666;28;20188;-57
2021/01/18 12:58:45;;;;;;;9.83;4.30;;;;;;;;;;5029278;28;20261;-57
2021/01/18 13:01:11;;;;;;;8.93;4.30;;;;;;;;;;5003485;28;20185;-57
2021/01/18 13:03:37;;;;;;;9.20;3.90;;;;;;;;;;5029324;28;20189;-57
2021/01/18 13:06:04;;;;;;;8.30;4.20;;;;;;;;;;5029293;28;20217;-58
2021/01/18 13:08:30;;;;;;;8.60;3.70;;;;;;;;;;5012778;28;20205;-57
2021/01/18 13:11:14;;;;;;;7.23;4.00;;;;;;;;;;5024454;28;20209;-57
2021/01/18 13:13:42;;;;;;;11.40;4.13;;;;;;;;;;5014705;28;20174;-58
2021/01/18 13:16:08;;;;;;;12.03;4.60;;;;;;;;;;5003253;28;20213;-57
2021/01/18 13:18:34;;;;;;;9.63;4.23;;;;;;;;;;5017523;28;20667;-57
2021/01/18 13:21:00;;;;;;;5.97;3.70;;;;;;;;;;5019327;28;20192;-58
2021/01/18 13:23:26;;;;;;;8.57;4.37;;;;;;;;;;5027459;28;20204;-58
2021/01/18 13:25:52;;;;;;;9.23;3.93;;;;;;;;;;5012594;28;20247;-58
2021/01/18 13:28:18;;;;;;;9.80;4.10;;;;;;;;;;5025063;28;20224;-57
2021/01/18 13:30:44;;;;;;;10.10;4.17;;;;;;;;;;5018041;28;20236;-57
2021/01/18 13:33:10;;;;;;;9.63;4.57;;;;;;;;;;5028032;28;20186;-57
2021/01/18 13:35:36;;;;;;;8.03;3.80;;;;;;;;;;5029252;28;20193;-57
2021/01/18 13:38:02;;;;;;;9.80;4.30;;;;;;;;;;5017975;28;20247;-58
2021/01/18 13:40:28;;;;;;;8.23;3.87;;;;;;;;;;5024208;28;20261;-57
2021/01/18 13:42:55;;;;;;;9.40;4.10;;;;;;;;;;5025646;28;20182;-58
2021/01/18 13:45:21;;;;;;;11.07;4.47;;;;;;;;;;5005523;28;20213;-58
2021/01/18 13:47:47;;;;;;;16.80;4.70;;;;;;;;;;5021212;28;20178;-58
2021/01/18 13:50:13;;;;;;;7.87;3.73;;;;;;;;;;5020801;28;20171;-57
2021/01/18 13:52:39;;;;;;;5.23;3.63;;;;;;;;;;5024452;28;20217;-59
2021/01/18 13:55:06;;;;;;;7.47;3.67;;;;;;;;;;5020972;28;20201;-57
2021/01/18 13:57:32;;;;;;;7.97;3.73;;;;;;;;;;5022193;28;20181;-58
2021/01/18 13:59:58;;;;;;;7.50;4.10;;;;;;;;;;5030987;28;20307;-58
2021/01/18 14:02:24;;;;;;;10.07;3.83;;;;;;;;;;5010879;28;20657;-57
2021/01/18 14:04:50;;;;;;;9.97;3.57;;;;;;;;;;5026297;28;20193;-57
2021/01/18 14:07:16;;;;;;;5.30;3.17;;;;;;;;;;5029252;28;20182;-58
2021/01/18 14:09:42;;;;;;;7.40;3.37;;;;;;;;;;5032077;28;20221;-58
2021/01/18 14:12:09;;;;;;;11.37;3.93;;;;;;;;;;5032866;28;20174;-57
2021/01/18 14:14:36;;;;;;;7.37;3.70;;;;;;;;;;5031502;28;20239;-58
2021/01/18 14:17:09;;;;;;;6.87;3.63;;;;;;;;;;5015625;28;20358;-60
2021/01/18 14:19:36;;;;;;;7.33;3.83;;;;;;;;;;5015165;28;20185;-57
2021/01/18 14:22:02;;;;;;;7.83;3.33;;;;;;;;;;5031079;28;21912;-57
2021/01/18 14:24:28;;;;;;;7.23;3.93;;;;;;;;;;5028961;28;20181;-58
2021/01/18 14:26:54;;;;;;;11.70;4.10;;;;;;;;;;5026504;28;20193;-59
2021/01/18 14:29:20;;;;;;;9.37;3.83;;;;;;;;;;5025601;28;20182;-58
2021/01/18 14:31:51;;;;;;;9.10;3.50;;;;;;;;;;5004241;28;20321;-59
2021/01/18 14:34:19;;;;;;;6.33;3.27;;;;;;;;;;5008102;28;20210;-58
2021/01/18 14:36:46;;;;;;;7.87;3.77;;;;;;;;;;5027825;28;20182;-58
2021/01/18 14:39:13;;;;;;;6.63;3.43;;;;;;;;;;5024412;28;20578;-58
2021/01/18 14:41:39;;;;;;;7.43;3.50;;;;;;;;;;4998461;28;20190;-58
2021/01/18 14:44:06;;;;;;;7.53;3.10;;;;;;;;;;5020220;28;20749;-58